Time;durP1;ratioP1;P1;durP2;ratioP2;P2;SDS_P1;SDS_P2;PMS_P1;PMS_P2;Temp;Humidity;BMP_temperature;BMP_pressure;BME280_temperature;BME280_humidity;BME280_pressure;Samples;Min_cycle;Max_cycle;Signal;HPM_P1;HPM_P2
2023/05/24 00:01:56;;;;;;;29.10;6.53;;;;;;;;;;5063320;28;20032;-73
2023/05/24 00:04:21;;;;;;;25.95;5.47;;;;;;;;;;5064530;28;20055;-73
2023/05/24 00:06:47;;;;;;;22.25;5.03;;;;;;;;;;5063507;28;20032;-73
2023/05/24 00:09:12;;;;;;;22.02;5.35;;;;;;;;;;5063536;28;20044;-72
2023/05/24 00:11:38;;;;;;;25.63;5.85;;;;;;;;;;5062196;28;20071;-73
2023/05/24 00:14:03;;;;;;;25.90;6.07;;;;;;;;;;5063554;28;20056;-73
2023/05/24 00:16:28;;;;;;;28.23;5.88;;;;;;;;;;5062389;28;20028;-72
2023/05/24 00:18:57;;;;;;;29.98;5.63;;;;;;;;;;5063688;28;20090;-73
2023/05/24 00:21:22;;;;;;;24.83;5.90;;;;;;;;;;5062653;28;20031;-73
2023/05/24 00:23:50;;;;;;;28.13;6.53;;;;;;;;;;5063857;28;20028;-73
2023/05/24 00:26:16;;;;;;;27.48;5.85;;;;;;;;;;5061860;28;20619;-72
2023/05/24 00:28:41;;;;;;;27.42;6.07;;;;;;;;;;5045949;28;20120;-74
2023/05/24 00:31:07;;;;;;;27.13;5.50;;;;;;;;;;5063262;28;20397;-73
2023/05/24 00:33:32;;;;;;;22.52;5.80;;;;;;;;;;5064634;28;20029;-73
2023/05/24 00:35:58;;;;;;;27.98;6.35;;;;;;;;;;5064099;28;20106;-73
2023/05/24 00:38:26;;;;;;;26.33;5.60;;;;;;;;;;4993847;28;20033;-73
2023/05/24 00:40:52;;;;;;;26.25;5.90;;;;;;;;;;4962262;28;20188;-73
2023/05/24 00:43:18;;;;;;;23.50;5.15;;;;;;;;;;4945163;28;20082;-73
2023/05/24 00:45:43;;;;;;;24.63;5.07;;;;;;;;;;4960553;28;20235;-73
2023/05/24 00:48:09;;;;;;;23.10;5.65;;;;;;;;;;4962709;28;20133;-74
2023/05/24 00:50:35;;;;;;;28.48;4.90;;;;;;;;;;4961999;28;20027;-72
2023/05/24 00:53:01;;;;;;;24.45;5.00;;;;;;;;;;4961896;28;20062;-73
2023/05/24 00:55:27;;;;;;;27.02;5.03;;;;;;;;;;4960725;28;20041;-73
2023/05/24 00:57:54;;;;;;;25.63;5.15;;;;;;;;;;4944602;28;20110;-73
2023/05/24 01:00:19;;;;;;;24.15;4.63;;;;;;;;;;4961878;28;20019;-74
2023/05/24 01:02:47;;;;;;;27.00;5.90;;;;;;;;;;4962052;28;20170;-73
2023/05/24 01:05:12;;;;;;;19.65;4.55;;;;;;;;;;4962187;28;20027;-73
2023/05/24 01:07:53;;;;;;;25.48;4.72;;;;;;;;;;4960065;28;20106;-73
2023/05/24 01:10:27;;;;;;;24.35;4.45;;;;;;;;;;4959945;28;20065;-73
2023/05/24 01:12:56;;;;;;;22.90;4.10;;;;;;;;;;4961800;28;20269;-73
2023/05/24 01:15:21;;;;;;;24.23;4.65;;;;;;;;;;4961912;28;20031;-73
2023/05/24 01:18:00;;;;;;;24.77;5.15;;;;;;;;;;4960713;28;20123;-74
2023/05/24 01:20:25;;;;;;;26.35;5.43;;;;;;;;;;4961762;28;20499;-74
2023/05/24 01:22:53;;;;;;;29.25;5.05;;;;;;;;;;4959991;28;20049;-74
2023/05/24 01:25:24;;;;;;;21.35;4.65;;;;;;;;;;4961585;28;20046;-74
2023/05/24 01:27:50;;;;;;;21.02;4.97;;;;;;;;;;4961740;28;20618;-72
2023/05/24 01:30:15;;;;;;;22.73;5.60;;;;;;;;;;4961544;28;20114;-73
2023/05/24 01:32:41;;;;;;;19.35;4.40;;;;;;;;;;4959911;28;20023;-72
2023/05/24 01:35:07;;;;;;;22.00;4.10;;;;;;;;;;4960369;28;20034;-74
2023/05/24 01:37:32;;;;;;;19.58;3.50;;;;;;;;;;4995590;28;20025;-73
2023/05/24 01:40:00;;;;;;;26.38;4.57;;;;;;;;;;5061620;28;20202;-71
2023/05/24 01:42:34;;;;;;;21.95;5.22;;;;;;;;;;5063382;28;20040;-74
2023/05/24 01:45:16;;;;;;;23.65;4.40;;;;;;;;;;5066760;28;20056;-73
2023/05/24 01:47:41;;;;;;;22.60;4.50;;;;;;;;;;5066482;28;20108;-72
2023/05/24 01:50:16;;;;;;;20.50;4.45;;;;;;;;;;5066754;28;20104;-73
2023/05/24 01:52:42;;;;;;;22.52;4.93;;;;;;;;;;5066040;28;20021;-73
2023/05/24 01:55:08;;;;;;;16.83;3.90;;;;;;;;;;5065236;28;20028;-73
2023/05/24 01:57:34;;;;;;;23.65;4.82;;;;;;;;;;5064786;28;20043;-73
2023/05/24 02:00:00;;;;;;;19.45;4.45;;;;;;;;;;5066638;28;20028;-73
2023/05/24 02:02:26;;;;;;;27.05;5.13;;;;;;;;;;5066080;28;20021;-73
2023/05/24 02:04:51;;;;;;;23.40;4.03;;;;;;;;;;5066192;28;20021;-74
2023/05/24 02:07:18;;;;;;;24.85;4.53;;;;;;;;;;5064087;28;20396;-72
2023/05/24 02:09:43;;;;;;;24.63;4.18;;;;;;;;;;5063840;28;20044;-73
2023/05/24 02:12:09;;;;;;;25.50;4.45;;;;;;;;;;5065874;28;20065;-73
2023/05/24 02:14:38;;;;;;;24.35;4.47;;;;;;;;;;5065716;28;20032;-73
2023/05/24 02:17:05;;;;;;;26.10;4.75;;;;;;;;;;5066626;28;20123;-73
2023/05/24 02:19:30;;;;;;;23.42;4.10;;;;;;;;;;5065958;28;20116;-72
2023/05/24 02:21:56;;;;;;;25.58;4.35;;;;;;;;;;5065456;28;20082;-73
2023/05/24 02:24:21;;;;;;;20.85;4.35;;;;;;;;;;5066003;28;20025;-74
2023/05/24 02:26:46;;;;;;;21.02;4.15;;;;;;;;;;5065115;28;20465;-72
2023/05/24 02:29:11;;;;;;;20.73;3.92;;;;;;;;;;5065300;28;20032;-73
2023/05/24 02:31:37;;;;;;;21.48;5.38;;;;;;;;;;5064955;28;20028;-72
2023/05/24 02:34:02;;;;;;;20.63;4.68;;;;;;;;;;5065615;28;20029;-73
2023/05/24 02:36:27;;;;;;;23.77;5.18;;;;;;;;;;5065847;28;20032;-74
2023/05/24 02:38:53;;;;;;;22.13;4.10;;;;;;;;;;5046365;28;20529;-73
2023/05/24 02:41:18;;;;;;;17.13;4.65;;;;;;;;;;5097742;28;20027;-72
2023/05/24 02:43:44;;;;;;;27.92;4.35;;;;;;;;;;5065728;28;20016;-73
2023/05/24 02:46:09;;;;;;;20.80;4.22;;;;;;;;;;5065525;28;20174;-73
2023/05/24 02:48:35;;;;;;;27.38;4.90;;;;;;;;;;5062514;28;20116;-73
2023/05/24 02:51:02;;;;;;;21.58;4.53;;;;;;;;;;5065535;28;20037;-73
2023/05/24 02:53:27;;;;;;;22.45;4.43;;;;;;;;;;5063418;28;20101;-73
2023/05/24 02:55:53;;;;;;;18.98;4.72;;;;;;;;;;5065035;28;20021;-73
2023/05/24 02:58:18;;;;;;;21.77;4.60;;;;;;;;;;5064922;28;20029;-73
2023/05/24 03:00:43;;;;;;;30.30;4.50;;;;;;;;;;5065166;28;20143;-74
2023/05/24 03:03:08;;;;;;;20.55;4.47;;;;;;;;;;5063223;28;20059;-73
2023/05/24 03:05:34;;;;;;;20.35;4.40;;;;;;;;;;5063404;28;20039;-74
2023/05/24 03:07:59;;;;;;;20.60;4.13;;;;;;;;;;5063192;28;20040;-74
2023/05/24 03:10:24;;;;;;;21.98;4.65;;;;;;;;;;5096519;28;20119;-74
2023/05/24 03:12:50;;;;;;;17.38;4.22;;;;;;;;;;5065885;28;20042;-74
2023/05/24 03:15:17;;;;;;;21.38;4.15;;;;;;;;;;5062268;28;20107;-74
2023/05/24 03:17:43;;;;;;;23.35;4.82;;;;;;;;;;5066582;28;20040;-73
2023/05/24 03:20:10;;;;;;;19.42;3.67;;;;;;;;;;5047066;28;20028;-73
2023/05/24 03:22:35;;;;;;;25.45;4.97;;;;;;;;;;5063630;28;20112;-73
2023/05/24 03:25:00;;;;;;;17.58;3.92;;;;;;;;;;5065662;28;20100;-73
2023/05/24 03:27:26;;;;;;;24.55;5.07;;;;;;;;;;5064766;28;20041;-74
2023/05/24 03:29:51;;;;;;;31.42;4.95;;;;;;;;;;5063779;28;20067;-73
2023/05/24 03:32:17;;;;;;;21.50;4.57;;;;;;;;;;5065004;28;20622;-74
2023/05/24 03:34:42;;;;;;;17.30;4.32;;;;;;;;;;5046040;28;20029;-73
2023/05/24 03:37:07;;;;;;;23.50;4.80;;;;;;;;;;5065914;28;20385;-73
2023/05/24 03:39:33;;;;;;;20.63;4.28;;;;;;;;;;5065454;28;20032;-72
2023/05/24 03:41:58;;;;;;;22.73;4.57;;;;;;;;;;5066508;28;20477;-73
2023/05/24 03:44:26;;;;;;;27.02;5.57;;;;;;;;;;5064508;28;20108;-73
2023/05/24 03:46:51;;;;;;;24.92;4.82;;;;;;;;;;5063787;28;20057;-73
2023/05/24 03:49:16;;;;;;;26.27;4.00;;;;;;;;;;5064953;28;20048;-72
2023/05/24 03:51:41;;;;;;;19.38;5.00;;;;;;;;;;5065138;28;20115;-72
2023/05/24 03:54:07;;;;;;;22.23;4.30;;;;;;;;;;5065238;28;20047;-72
2023/05/24 03:56:32;;;;;;;18.52;4.18;;;;;;;;;;5062641;28;20465;-73
2023/05/24 03:59:02;;;;;;;15.95;3.78;;;;;;;;;;5062909;28;20041;-73
2023/05/24 04:01:30;;;;;;;18.50;4.22;;;;;;;;;;5063743;28;20027;-73
2023/05/24 04:03:56;;;;;;;24.08;4.47;;;;;;;;;;5063946;28;20036;-72
2023/05/24 04:06:27;;;;;;;21.05;4.68;;;;;;;;;;5063746;28;20032;-73
2023/05/24 04:08:52;;;;;;;23.15;3.80;;;;;;;;;;5045791;28;20055;-75
2023/05/24 04:11:19;;;;;;;20.98;3.85;;;;;;;;;;5063808;28;20079;-73
2023/05/24 04:13:44;;;;;;;23.10;4.72;;;;;;;;;;5064130;28;20025;-73
2023/05/24 04:16:12;;;;;;;21.80;4.00;;;;;;;;;;5064819;28;20040;-73
2023/05/24 04:18:38;;;;;;;20.38;4.07;;;;;;;;;;5064185;28;20025;-71
2023/05/24 04:21:03;;;;;;;20.95;3.92;;;;;;;;;;5064412;28;20033;-73
2023/05/24 04:23:28;;;;;;;17.55;3.85;;;;;;;;;;5061730;28;20029;-72
2023/05/24 04:25:54;;;;;;;20.02;3.63;;;;;;;;;;5063840;28;20073;-73
2023/05/24 04:28:21;;;;;;;24.45;4.47;;;;;;;;;;5061524;28;20032;-72
2023/05/24 04:30:46;;;;;;;22.65;4.03;;;;;;;;;;5063830;28;20553;-73
2023/05/24 04:33:11;;;;;;;19.58;5.00;;;;;;;;;;5061874;28;20123;-73
2023/05/24 04:35:37;;;;;;;21.48;4.25;;;;;;;;;;5064316;28;20043;-72
2023/05/24 04:38:02;;;;;;;20.27;4.07;;;;;;;;;;5006957;28;20049;-72
2023/05/24 04:40:27;;;;;;;21.83;3.70;;;;;;;;;;4963256;28;20031;-73
2023/05/24 04:42:53;;;;;;;15.40;3.90;;;;;;;;;;4960577;28;20145;-71
2023/05/24 04:45:18;;;;;;;18.83;4.07;;;;;;;;;;4962246;28;20439;-73
2023/05/24 04:47:44;;;;;;;20.38;4.13;;;;;;;;;;4961442;28;20472;-74
2023/05/24 04:50:09;;;;;;;17.15;4.15;;;;;;;;;;4962541;28;20015;-72
2023/05/24 04:52:35;;;;;;;20.63;4.15;;;;;;;;;;4961329;28;20027;-73
2023/05/24 04:55:01;;;;;;;18.35;4.32;;;;;;;;;;4961656;28;20059;-74
2023/05/24 04:57:26;;;;;;;25.17;4.40;;;;;;;;;;4962938;28;20023;-73
2023/05/24 04:59:52;;;;;;;18.98;3.95;;;;;;;;;;4961096;28;20544;-71
2023/05/24 05:02:17;;;;;;;22.58;4.25;;;;;;;;;;4962321;28;20023;-75
2023/05/24 05:04:45;;;;;;;54.28;6.60;;;;;;;;;;4944227;28;20428;-73
2023/05/24 05:07:12;;;;;;;25.10;4.32;;;;;;;;;;4961569;28;20505;-73
2023/05/24 05:09:40;;;;;;;21.65;4.00;;;;;;;;;;4960984;28;20077;-73
2023/05/24 05:12:06;;;;;;;17.40;3.75;;;;;;;;;;4961750;28;20515;-73
2023/05/24 05:14:31;;;;;;;21.05;4.53;;;;;;;;;;4961150;28;20037;-73
2023/05/24 05:16:57;;;;;;;25.83;4.20;;;;;;;;;;4961586;28;20081;-73
2023/05/24 05:19:23;;;;;;;14.05;3.30;;;;;;;;;;4963517;28;20039;-73
2023/05/24 05:21:50;;;;;;;16.33;3.53;;;;;;;;;;4965053;28;20049;-73
2023/05/24 05:24:17;;;;;;;18.77;3.47;;;;;;;;;;4964278;28;20030;-73
2023/05/24 05:26:42;;;;;;;14.93;3.10;;;;;;;;;;4965188;28;20058;-74
2023/05/24 05:29:07;;;;;;;17.10;3.85;;;;;;;;;;4946147;28;20035;-74
2023/05/24 05:31:33;;;;;;;17.48;3.70;;;;;;;;;;4946683;28;20478;-73
2023/05/24 05:33:58;;;;;;;20.92;3.83;;;;;;;;;;4946544;28;20118;-74
2023/05/24 05:36:24;;;;;;;16.00;3.80;;;;;;;;;;4963392;28;20117;-74
2023/05/24 05:38:49;;;;;;;15.80;3.65;;;;;;;;;;5052876;28;20020;-72
2023/05/24 05:41:15;;;;;;;19.90;3.55;;;;;;;;;;5066331;28;20091;-74
2023/05/24 05:43:40;;;;;;;16.85;3.40;;;;;;;;;;5063672;28;20029;-73
2023/05/24 05:46:06;;;;;;;23.00;4.18;;;;;;;;;;5066100;28;20626;-73
2023/05/24 05:48:31;;;;;;;17.42;3.20;;;;;;;;;;5066120;28;20045;-72
2023/05/24 05:50:56;;;;;;;13.70;3.17;;;;;;;;;;5064432;28;20032;-73
2023/05/24 05:53:21;;;;;;;20.48;4.40;;;;;;;;;;5065575;28;20393;-72
2023/05/24 05:55:47;;;;;;;22.55;4.50;;;;;;;;;;5064406;28;20477;-72
2023/05/24 05:58:12;;;;;;;19.00;4.13;;;;;;;;;;5064652;28;20059;-74
2023/05/24 06:00:39;;;;;;;14.95;3.70;;;;;;;;;;5066299;28;20033;-72
2023/05/24 06:03:04;;;;;;;17.05;4.03;;;;;;;;;;5064650;28;20537;-73
2023/05/24 06:05:29;;;;;;;12.30;3.17;;;;;;;;;;5063185;28;20101;-73
2023/05/24 06:07:58;;;;;;;12.43;3.20;;;;;;;;;;5065663;28;20078;-73
2023/05/24 06:10:23;;;;;;;22.20;3.75;;;;;;;;;;5063582;28;20633;-72
2023/05/24 06:12:48;;;;;;;15.93;3.85;;;;;;;;;;5064141;28;20055;-75
2023/05/24 06:15:14;;;;;;;18.58;4.00;;;;;;;;;;5043330;28;20030;-73
2023/05/24 06:17:42;;;;;;;13.52;3.10;;;;;;;;;;4943009;28;20028;-74
2023/05/24 06:20:09;;;;;;;19.02;4.13;;;;;;;;;;4942219;28;20027;-73
2023/05/24 06:22:36;;;;;;;17.48;3.55;;;;;;;;;;4943264;28;20654;-70
2023/05/24 06:25:04;;;;;;;19.00;3.75;;;;;;;;;;4943497;28;20081;-73
2023/05/24 06:27:29;;;;;;;16.90;3.42;;;;;;;;;;4943278;28;20205;-72
2023/05/24 06:29:55;;;;;;;18.70;3.63;;;;;;;;;;4941030;28;20046;-73
2023/05/24 06:32:20;;;;;;;20.05;3.88;;;;;;;;;;4943810;28;20035;-73
2023/05/24 06:34:45;;;;;;;14.48;3.30;;;;;;;;;;4942225;28;20396;-73
2023/05/24 06:37:13;;;;;;;18.92;4.35;;;;;;;;;;4966645;28;20020;-73
2023/05/24 06:39:39;;;;;;;14.88;3.65;;;;;;;;;;5064469;28;20401;-74
2023/05/24 06:42:04;;;;;;;14.63;3.42;;;;;;;;;;5063515;28;20028;-73
2023/05/24 06:44:33;;;;;;;16.95;3.70;;;;;;;;;;5064754;28;20025;-73
2023/05/24 06:46:58;;;;;;;15.27;3.70;;;;;;;;;;5064098;28;20114;-74
2023/05/24 06:49:24;;;;;;;17.25;3.20;;;;;;;;;;5062535;28;20484;-76
2023/05/24 06:51:49;;;;;;;12.70;2.90;;;;;;;;;;5062527;28;20220;-76
2023/05/24 06:54:14;;;;;;;14.68;3.40;;;;;;;;;;5045278;28;20029;-74
2023/05/24 06:56:40;;;;;;;14.57;3.33;;;;;;;;;;5062697;28;20389;-77
2023/05/24 06:59:07;;;;;;;12.35;3.00;;;;;;;;;;5061881;28;20036;-76
2023/05/24 07:01:38;;;;;;;13.30;3.53;;;;;;;;;;5060808;28;20025;-76
2023/05/24 07:04:04;;;;;;;12.87;2.67;;;;;;;;;;5062880;28;20500;-75
2023/05/24 07:06:31;;;;;;;14.23;3.40;;;;;;;;;;5063361;28;20079;-76
2023/05/24 07:08:56;;;;;;;10.95;3.03;;;;;;;;;;5044408;28;20032;-76
2023/05/24 07:11:22;;;;;;;13.45;3.20;;;;;;;;;;5060967;28;20627;-76
2023/05/24 07:13:47;;;;;;;17.42;3.03;;;;;;;;;;5060820;28;20033;-76
2023/05/24 07:16:12;;;;;;;12.85;3.30;;;;;;;;;;5063815;28;20212;-76
2023/05/24 07:18:40;;;;;;;13.77;3.50;;;;;;;;;;5063576;28;20438;-77
2023/05/24 07:21:05;;;;;;;11.32;3.15;;;;;;;;;;5045819;28;20043;-76
2023/05/24 07:23:31;;;;;;;16.58;3.72;;;;;;;;;;5062006;28;20021;-74
2023/05/24 07:25:56;;;;;;;12.10;3.30;;;;;;;;;;5063333;28;20033;-76
2023/05/24 07:28:23;;;;;;;14.77;3.30;;;;;;;;;;5062650;28;20485;-76
2023/05/24 07:30:49;;;;;;;14.95;3.47;;;;;;;;;;5060634;28;20028;-76
2023/05/24 07:33:15;;;;;;;13.32;3.10;;;;;;;;;;5044003;28;20393;-74
2023/05/24 07:35:41;;;;;;;14.30;3.25;;;;;;;;;;5018581;28;20023;-76
2023/05/24 07:38:06;;;;;;;10.27;3.17;;;;;;;;;;5011116;28;20120;-75
2023/05/24 07:40:31;;;;;;;10.55;2.95;;;;;;;;;;5060202;28;20107;-76
2023/05/24 07:42:57;;;;;;;13.70;2.97;;;;;;;;;;5062299;28;20029;-77
2023/05/24 07:45:22;;;;;;;11.50;2.88;;;;;;;;;;5061772;28;20488;-77
2023/05/24 07:47:47;;;;;;;11.55;3.33;;;;;;;;;;5062218;28;20054;-73
2023/05/24 07:50:13;;;;;;;14.55;3.40;;;;;;;;;;5063632;28;20101;-76
2023/05/24 07:52:38;;;;;;;11.73;3.08;;;;;;;;;;5063336;28;20017;-74
2023/05/24 07:55:04;;;;;;;10.98;3.08;;;;;;;;;;5061052;28;20500;-77
2023/05/24 07:57:30;;;;;;;13.05;3.72;;;;;;;;;;5063474;28;20017;-74
2023/05/24 07:59:55;;;;;;;8.77;2.83;;;;;;;;;;5061036;28;20029;-79
2023/05/24 08:02:21;;;;;;;12.43;3.28;;;;;;;;;;5060901;28;20096;-74
2023/05/24 08:04:47;;;;;;;14.60;3.20;;;;;;;;;;5061348;28;20048;-75
2023/05/24 08:07:14;;;;;;;20.42;3.63;;;;;;;;;;5063525;28;20028;-77
2023/05/24 08:09:41;;;;;;;12.95;3.40;;;;;;;;;;5061260;28;20052;-74
2023/05/24 08:12:08;;;;;;;11.85;3.20;;;;;;;;;;5063921;28;20086;-74
2023/05/24 08:14:36;;;;;;;11.13;2.83;;;;;;;;;;5062866;28;20028;-76
2023/05/24 08:17:02;;;;;;;10.57;3.05;;;;;;;;;;5062291;28;20401;-76
2023/05/24 08:19:27;;;;;;;12.23;2.72;;;;;;;;;;5063464;28;20021;-76
2023/05/24 08:22:03;;;;;;;12.35;3.22;;;;;;;;;;5062124;28;20028;-75
2023/05/24 08:24:29;;;;;;;15.07;3.08;;;;;;;;;;4956113;28;20118;-76
2023/05/24 08:26:55;;;;;;;14.20;3.10;;;;;;;;;;4941872;28;20028;-77
2023/05/24 08:29:20;;;;;;;12.57;3.10;;;;;;;;;;4954124;28;20334;-77
2023/05/24 08:31:47;;;;;;;11.15;3.35;;;;;;;;;;4961037;28;20054;-76
2023/05/24 08:34:14;;;;;;;16.13;3.92;;;;;;;;;;4961332;28;20092;-75
2023/05/24 08:36:42;;;;;;;13.65;3.28;;;;;;;;;;4960183;28;20080;-77
2023/05/24 08:39:08;;;;;;;77.22;9.90;;;;;;;;;;5061871;28;20045;-76
2023/05/24 08:41:36;;;;;;;16.45;3.55;;;;;;;;;;5063807;28;20025;-76
2023/05/24 08:44:04;;;;;;;13.20;3.28;;;;;;;;;;5062537;28;20249;-77
2023/05/24 08:46:29;;;;;;;12.43;2.92;;;;;;;;;;5059468;28;20028;-75
2023/05/24 08:48:55;;;;;;;17.90;3.35;;;;;;;;;;5062146;28;20374;-78
2023/05/24 08:51:20;;;;;;;15.63;3.08;;;;;;;;;;5059819;28;20540;-76
2023/05/24 08:53:48;;;;;;;13.32;3.42;;;;;;;;;;5065545;28;20035;-79
2023/05/24 08:56:17;;;;;;;13.05;3.47;;;;;;;;;;5065531;28;20028;-76
2023/05/24 08:58:45;;;;;;;13.05;3.15;;;;;;;;;;5064542;28;20033;-76
2023/05/24 09:01:12;;;;;;;15.73;3.58;;;;;;;;;;5066303;28;20043;-78
2023/05/24 09:03:38;;;;;;;13.88;3.25;;;;;;;;;;5066586;28;20520;-76
2023/05/24 09:06:04;;;;;;;15.55;3.45;;;;;;;;;;5064196;28;20099;-76
2023/05/24 09:08:32;;;;;;;17.10;3.30;;;;;;;;;;5066635;28;20135;-76
2023/05/24 09:10:58;;;;;;;17.25;3.33;;;;;;;;;;4991749;28;20503;-77
2023/05/24 09:13:24;;;;;;;14.50;3.55;;;;;;;;;;4962202;28;20038;-78
2023/05/24 09:15:49;;;;;;;12.30;2.95;;;;;;;;;;4963580;28;20023;-78
2023/05/24 09:18:14;;;;;;;12.23;3.20;;;;;;;;;;4962636;28;20479;-77
2023/05/24 09:20:40;;;;;;;15.95;3.53;;;;;;;;;;4961575;28;20023;-77
2023/05/24 09:23:07;;;;;;;12.32;3.05;;;;;;;;;;4963224;28;20027;-77
2023/05/24 09:25:32;;;;;;;11.45;3.13;;;;;;;;;;4963116;28;20030;-78
2023/05/24 09:28:04;;;;;;;11.63;3.22;;;;;;;;;;4945712;28;20023;-79
2023/05/24 09:30:29;;;;;;;11.70;3.03;;;;;;;;;;4977716;28;20387;-79
2023/05/24 09:32:56;;;;;;;11.18;3.00;;;;;;;;;;4963448;28;20023;-77
2023/05/24 09:35:21;;;;;;;10.82;3.05;;;;;;;;;;4962988;28;20418;-78
2023/05/24 09:37:47;;;;;;;21.10;4.20;;;;;;;;;;5007854;28;20021;-77
2023/05/24 09:40:21;;;;;;;42.63;6.82;;;;;;;;;;5063615;28;20156;-77
2023/05/24 09:42:50;;;;;;;34.85;4.97;;;;;;;;;;5063825;28;20507;-76
2023/05/24 09:45:17;;;;;;;17.02;3.65;;;;;;;;;;5077956;28;20538;-77
2023/05/24 09:47:44;;;;;;;15.27;3.88;;;;;;;;;;4932397;28;20096;-78
2023/05/24 09:50:18;;;;;;;12.38;3.28;;;;;;;;;;4953851;28;20042;-78
2023/05/24 09:52:44;;;;;;;12.50;2.90;;;;;;;;;;4957788;28;20024;-78
2023/05/24 09:55:14;;;;;;;15.60;3.33;;;;;;;;;;4955744;28;20301;-78
2023/05/24 09:57:39;;;;;;;11.73;3.45;;;;;;;;;;4993092;28;20114;-78
2023/05/24 10:00:13;;;;;;;15.38;3.00;;;;;;;;;;4963081;28;20210;-78
2023/05/24 10:02:38;;;;;;;14.23;3.40;;;;;;;;;;4961201;28;20042;-78
2023/05/24 10:05:04;;;;;;;12.07;3.10;;;;;;;;;;4961401;28;20031;-79
2023/05/24 10:07:31;;;;;;;13.25;3.22;;;;;;;;;;4961761;28;20039;-79
2023/05/24 10:09:57;;;;;;;12.60;3.30;;;;;;;;;;4960635;28;20662;-78
2023/05/24 10:12:24;;;;;;;38.05;5.82;;;;;;;;;;4960202;28;20118;-78
2023/05/24 10:14:50;;;;;;;26.65;4.07;;;;;;;;;;4944428;28;20480;-76
2023/05/24 10:17:16;;;;;;;16.52;3.22;;;;;;;;;;4943436;28;20024;-79
2023/05/24 10:19:41;;;;;;;15.95;3.33;;;;;;;;;;4942515;28;20092;-71
2023/05/24 10:22:10;;;;;;;12.82;2.88;;;;;;;;;;4943022;28;20035;-78
2023/05/24 10:24:41;;;;;;;13.95;3.33;;;;;;;;;;4950139;28;20035;-77
2023/05/24 10:27:11;;;;;;;17.13;3.55;;;;;;;;;;4991241;28;20046;-76
2023/05/24 10:29:45;;;;;;;12.30;3.28;;;;;;;;;;4992515;28;20038;-78
2023/05/24 10:32:11;;;;;;;12.55;3.47;;;;;;;;;;4960810;28;20050;-80
2023/05/24 10:34:37;;;;;;;18.17;3.22;;;;;;;;;;4992978;28;20057;-77
2023/05/24 10:37:02;;;;;;;13.05;2.95;;;;;;;;;;4973566;28;20058;-78
2023/05/24 10:39:27;;;;;;;12.15;3.42;;;;;;;;;;5061682;28;20484;-78
2023/05/24 10:41:56;;;;;;;12.52;3.47;;;;;;;;;;5062706;28;20032;-78
2023/05/24 10:44:21;;;;;;;12.32;3.13;;;;;;;;;;5064137;28;20036;-74
2023/05/24 10:47:05;;;;;;;11.48;3.00;;;;;;;;;;5046081;28;20296;-79
2023/05/24 10:49:30;;;;;;;10.95;3.28;;;;;;;;;;4946294;28;20055;-77
2023/05/24 10:52:16;;;;;;;13.52;3.58;;;;;;;;;;4943142;28;20031;-78
2023/05/24 10:55:00;;;;;;;18.85;3.78;;;;;;;;;;4940591;28;20519;-77
2023/05/24 10:57:29;;;;;;;11.05;3.10;;;;;;;;;;4940717;28;20027;-78
2023/05/24 10:59:56;;;;;;;16.17;3.60;;;;;;;;;;4942288;28;20062;-76
2023/05/24 11:02:21;;;;;;;13.20;3.08;;;;;;;;;;4942912;28;20020;-75
2023/05/24 11:04:49;;;;;;;16.58;3.20;;;;;;;;;;4940908;28;20073;-76
2023/05/24 11:07:14;;;;;;;15.05;3.38;;;;;;;;;;4941179;28;20032;-77
2023/05/24 11:09:51;;;;;;;14.18;3.33;;;;;;;;;;4942101;28;20054;-77
2023/05/24 11:12:17;;;;;;;10.65;2.70;;;;;;;;;;4942309;28;20039;-74
2023/05/24 11:14:46;;;;;;;13.70;3.13;;;;;;;;;;4942261;28;20027;-76
2023/05/24 11:17:12;;;;;;;12.38;3.20;;;;;;;;;;5024474;28;20088;-77
2023/05/24 11:19:44;;;;;;;15.43;3.22;;;;;;;;;;5023774;28;20031;-78
2023/05/24 11:22:10;;;;;;;11.10;3.08;;;;;;;;;;5024788;28;20031;-78
2023/05/24 11:24:37;;;;;;;13.35;3.38;;;;;;;;;;4942505;28;20035;-79
2023/05/24 11:27:02;;;;;;;13.57;3.28;;;;;;;;;;4942795;28;20518;-77
2023/05/24 11:29:28;;;;;;;14.30;3.28;;;;;;;;;;4942046;28;20039;-79
2023/05/24 11:31:56;;;;;;;13.48;3.60;;;;;;;;;;4942290;28;20134;-74
2023/05/24 11:34:26;;;;;;;14.02;3.35;;;;;;;;;;4942433;28;20027;-78
2023/05/24 11:36:51;;;;;;;14.25;3.25;;;;;;;;;;4949564;28;20030;-77
2023/05/24 11:39:22;;;;;;;11.73;3.05;;;;;;;;;;5061236;28;20025;-78
2023/05/24 11:41:47;;;;;;;16.13;3.33;;;;;;;;;;5060347;28;20051;-76
2023/05/24 11:44:15;;;;;;;12.80;3.28;;;;;;;;;;5094218;28;20029;-78
2023/05/24 11:46:42;;;;;;;13.93;3.20;;;;;;;;;;5062270;28;20045;-78
2023/05/24 11:49:11;;;;;;;14.50;3.20;;;;;;;;;;5062768;28;20436;-76
2023/05/24 11:51:36;;;;;;;13.80;3.20;;;;;;;;;;5060284;28;20107;-78
2023/05/24 11:54:01;;;;;;;18.08;3.35;;;;;;;;;;5061100;28;20039;-78
2023/05/24 11:56:30;;;;;;;14.50;3.22;;;;;;;;;;5061307;28;20024;-77
2023/05/24 11:59:15;;;;;;;13.05;2.92;;;;;;;;;;5062602;28;20377;-76
2023/05/24 12:01:40;;;;;;;10.68;2.83;;;;;;;;;;5063137;28;20044;-75
2023/05/24 12:04:08;;;;;;;14.50;3.15;;;;;;;;;;5043482;28;20478;-76
2023/05/24 12:06:37;;;;;;;12.52;2.90;;;;;;;;;;5062876;28;20036;-76
2023/05/24 12:09:07;;;;;;;12.13;3.30;;;;;;;;;;5061803;28;20520;-78
2023/05/24 12:11:42;;;;;;;12.43;3.20;;;;;;;;;;5060738;28;20219;-78
2023/05/24 12:14:15;;;;;;;14.40;3.22;;;;;;;;;;5060038;28;20039;-78
2023/05/24 12:16:41;;;;;;;11.07;3.00;;;;;;;;;;5061570;28;20068;-76
2023/05/24 12:19:06;;;;;;;12.85;3.08;;;;;;;;;;5061286;28;20117;-76
2023/05/24 12:21:32;;;;;;;15.05;3.40;;;;;;;;;;5062749;28;20020;-76
2023/05/24 12:24:06;;;;;;;13.10;3.00;;;;;;;;;;5060961;28;20071;-76
2023/05/24 12:26:33;;;;;;;27.65;3.92;;;;;;;;;;5060257;28;20420;-75
2023/05/24 12:29:00;;;;;;;15.73;3.13;;;;;;;;;;5061950;28;20040;-76
2023/05/24 12:31:25;;;;;;;11.60;3.05;;;;;;;;;;5060975;28;20481;-76
2023/05/24 12:33:51;;;;;;;14.35;3.47;;;;;;;;;;5078037;28;20102;-75
2023/05/24 12:36:16;;;;;;;13.38;3.40;;;;;;;;;;5062600;28;20047;-77
2023/05/24 12:38:41;;;;;;;14.48;3.60;;;;;;;;;;4979371;28;20292;-75
2023/05/24 12:41:09;;;;;;;13.02;3.03;;;;;;;;;;4960536;28;20177;-76
2023/05/24 12:43:35;;;;;;;11.75;2.85;;;;;;;;;;4961710;28;20031;-75
2023/05/24 12:46:01;;;;;;;12.70;3.22;;;;;;;;;;4960556;28;20384;-75
2023/05/24 12:48:26;;;;;;;14.18;3.50;;;;;;;;;;4961423;28;20046;-75
2023/05/24 12:50:51;;;;;;;11.50;2.80;;;;;;;;;;4960845;28;20046;-77
2023/05/24 12:53:18;;;;;;;13.05;2.97;;;;;;;;;;4961554;28;20491;-77
2023/05/24 12:55:44;;;;;;;14.85;3.22;;;;;;;;;;4958828;28;20030;-76
2023/05/24 12:58:10;;;;;;;9.25;2.53;;;;;;;;;;4960413;28;20027;-74
2023/05/24 13:00:35;;;;;;;11.77;3.08;;;;;;;;;;4958316;28;20038;-76
2023/05/24 13:03:00;;;;;;;13.82;3.22;;;;;;;;;;4960557;28;20098;-75
2023/05/24 13:05:27;;;;;;;8.18;2.60;;;;;;;;;;4960021;28;20027;-76
2023/05/24 13:07:55;;;;;;;12.73;3.10;;;;;;;;;;4958528;28;20034;-76
2023/05/24 13:10:20;;;;;;;14.90;3.33;;;;;;;;;;4966621;28;20149;-71
2023/05/24 13:12:45;;;;;;;14.85;2.92;;;;;;;;;;4958488;28;20035;-76
2023/05/24 13:15:13;;;;;;;14.45;3.28;;;;;;;;;;4960253;28;20511;-77
2023/05/24 13:17:40;;;;;;;12.25;3.28;;;;;;;;;;4960278;28;20039;-75
2023/05/24 13:20:06;;;;;;;13.57;3.00;;;;;;;;;;4957771;28;20037;-78
2023/05/24 13:22:32;;;;;;;9.05;2.75;;;;;;;;;;4960381;28;20110;-76
2023/05/24 13:24:58;;;;;;;14.23;3.00;;;;;;;;;;4961028;28;25167;-76
2023/05/24 13:27:23;;;;;;;12.40;3.20;;;;;;;;;;4960825;28;20027;-76
2023/05/24 13:29:48;;;;;;;15.90;3.03;;;;;;;;;;4960092;28;20088;-76
2023/05/24 13:32:14;;;;;;;10.13;2.67;;;;;;;;;;4950305;28;20031;-75
2023/05/24 13:34:40;;;;;;;15.30;3.15;;;;;;;;;;4959159;28;20122;-75
2023/05/24 13:37:07;;;;;;;12.85;3.28;;;;;;;;;;4975376;28;20053;-74
2023/05/24 13:39:34;;;;;;;12.82;2.95;;;;;;;;;;5065065;28;20028;-75
2023/05/24 13:41:59;;;;;;;12.48;3.03;;;;;;;;;;5063736;28;20379;-76
2023/05/24 13:44:25;;;;;;;14.40;3.28;;;;;;;;;;5065119;28;20077;-75
2023/05/24 13:46:51;;;;;;;10.05;3.10;;;;;;;;;;5063178;28;20079;-76
2023/05/24 13:49:16;;;;;;;9.93;2.45;;;;;;;;;;5065415;28;20592;-76
2023/05/24 13:51:41;;;;;;;13.90;3.08;;;;;;;;;;5018024;28;20031;-78
2023/05/24 13:54:07;;;;;;;10.52;3.03;;;;;;;;;;4960723;28;20263;-75
2023/05/24 13:56:33;;;;;;;12.05;2.83;;;;;;;;;;4962324;28;20027;-76
2023/05/24 13:58:59;;;;;;;14.73;3.53;;;;;;;;;;4964190;28;20081;-75
2023/05/24 14:01:25;;;;;;;15.30;3.35;;;;;;;;;;4962128;28;20035;-73
2023/05/24 14:03:50;;;;;;;16.15;3.20;;;;;;;;;;4960763;28;20023;-75
2023/05/24 14:06:16;;;;;;;12.63;3.05;;;;;;;;;;4963220;28;20384;-76
2023/05/24 14:08:41;;;;;;;11.02;3.03;;;;;;;;;;4962545;28;20099;-74
2023/05/24 14:11:07;;;;;;;12.63;3.10;;;;;;;;;;4963376;28;20093;-75
2023/05/24 14:13:32;;;;;;;12.68;2.97;;;;;;;;;;4962743;28;20034;-75
2023/05/24 14:15:58;;;;;;;12.43;3.10;;;;;;;;;;4962577;28;20395;-76
2023/05/24 14:18:23;;;;;;;14.45;3.42;;;;;;;;;;4962924;28;20469;-76
2023/05/24 14:20:48;;;;;;;10.35;3.03;;;;;;;;;;4962720;28;20023;-75
2023/05/24 14:23:18;;;;;;;14.48;3.20;;;;;;;;;;4962285;28;20525;-75
2023/05/24 14:25:45;;;;;;;15.95;3.20;;;;;;;;;;4962301;28;20601;-75
2023/05/24 14:28:11;;;;;;;16.85;3.90;;;;;;;;;;4962509;28;20042;-76